sensor_id;sensor_type;location;lat;lon;timestamp;P1;durP1;ratioP1;P2;durP2;ratioP2
56401;SDS011;42299;35.160;26.100;2023-03-01T00:00:16;34.20;;;21.77;;
56401;SDS011;42299;35.160;26.100;2023-03-01T00:01:39;36.20;;;20.67;;
56401;SDS011;42299;35.160;26.100;2023-03-01T00:03:00;30.15;;;19.95;;
56401;SDS011;42299;35.160;26.100;2023-03-01T00:04:22;26.75;;;17.92;;
56401;SDS011;42299;35.160;26.100;2023-03-01T00:05:45;32.08;;;19.15;;
56401;SDS011;42299;35.160;26.100;2023-03-01T00:07:07;62.30;;;31.35;;
56401;SDS011;42299;35.160;26.100;2023-03-01T00:08:29;44.35;;;23.17;;
56401;SDS011;42299;35.160;26.100;2023-03-01T00:09:51;37.45;;;21.58;;
56401;SDS011;42299;35.160;26.100;2023-03-01T00:11:15;29.67;;;18.70;;
56401;SDS011;42299;35.160;26.100;2023-03-01T00:12:37;31.63;;;17.13;;
56401;SDS011;42299;35.160;26.100;2023-03-01T00:14:00;32.10;;;15.77;;
56401;SDS011;42299;35.160;26.100;2023-03-01T00:15:23;29.25;;;17.35;;
56401;SDS011;42299;35.160;26.100;2023-03-01T00:16:46;28.35;;;18.48;;
56401;SDS011;42299;35.160;26.100;2023-03-01T00:18:08;24.33;;;13.50;;
56401;SDS011;42299;35.160;26.100;2023-03-01T00:19:29;22.95;;;13.40;;
56401;SDS011;42299;35.160;26.100;2023-03-01T00:20:53;22.08;;;11.27;;
56401;SDS011;42299;35.160;26.100;2023-03-01T00:22:15;16.52;;;10.77;;
56401;SDS011;42299;35.160;26.100;2023-03-01T00:23:38;21.25;;;10.60;;
56401;SDS011;42299;35.160;26.100;2023-03-01T00:24:59;26.05;;;10.65;;
56401;SDS011;42299;35.160;26.100;2023-03-01T00:26:22;25.25;;;10.82;;
56401;SDS011;42299;35.160;26.100;2023-03-01T00:27:46;21.05;;;11.20;;
56401;SDS011;42299;35.160;26.100;2023-03-01T00:29:09;22.08;;;11.38;;
56401;SDS011;42299;35.160;26.100;2023-03-01T00:30:32;26.70;;;11.30;;
56401;SDS011;42299;35.160;26.100;2023-03-01T00:31:54;19.33;;;10.13;;
56401;SDS011;42299;35.160;26.100;2023-03-01T00:33:17;21.08;;;11.05;;
56401;SDS011;42299;35.160;26.100;2023-03-01T00:34:38;20.15;;;11.40;;
56401;SDS011;42299;35.160;26.100;2023-03-01T00:36:02;19.02;;;10.18;;
56401;SDS011;42299;35.160;26.100;2023-03-01T00:37:24;17.02;;;10.60;;
56401;SDS011;42299;35.160;26.100;2023-03-01T00:38:46;21.08;;;10.43;;
56401;SDS011;42299;35.160;26.100;2023-03-01T00:40:08;20.40;;;11.40;;
56401;SDS011;42299;35.160;26.100;2023-03-01T00:41:31;21.63;;;10.05;;
56401;SDS011;42299;35.160;26.100;2023-03-01T00:42:54;21.85;;;10.88;;
56401;SDS011;42299;35.160;26.100;2023-03-01T00:44:17;17.23;;;9.93;;
56401;SDS011;42299;35.160;26.100;2023-03-01T00:45:41;19.73;;;10.40;;
56401;SDS011;42299;35.160;26.100;2023-03-01T00:47:02;15.65;;;10.05;;
56401;SDS011;42299;35.160;26.100;2023-03-01T00:48:25;17.10;;;10.85;;
56401;SDS011;42299;35.160;26.100;2023-03-01T00:49:47;27.55;;;10.25;;
56401;SDS011;42299;35.160;26.100;2023-03-01T00:51:11;16.85;;;9.02;;
56401;SDS011;42299;35.160;26.100;2023-03-01T00:52:34;20.92;;;10.50;;
56401;SDS011;42299;35.160;26.100;2023-03-01T00:53:57;22.73;;;11.48;;
56401;SDS011;42299;35.160;26.100;2023-03-01T00:55:19;20.83;;;9.93;;
56401;SDS011;42299;35.160;26.100;2023-03-01T00:56:42;24.70;;;10.50;;
56401;SDS011;42299;35.160;26.100;2023-03-01T00:58:04;23.55;;;10.25;;
56401;SDS011;42299;35.160;26.100;2023-03-01T00:59:25;16.25;;;9.82;;
56401;SDS011;42299;35.160;26.100;2023-03-01T01:00:49;18.25;;;9.82;;
56401;SDS011;42299;35.160;26.100;2023-03-01T01:02:10;17.70;;;11.18;;
56401;SDS011;42299;35.160;26.100;2023-03-01T01:03:33;18.23;;;10.23;;
56401;SDS011;42299;35.160;26.100;2023-03-01T01:04:54;16.85;;;9.90;;
56401;SDS011;42299;35.160;26.100;2023-03-01T01:06:17;18.48;;;10.70;;
56401;SDS011;42299;35.160;26.100;2023-03-01T01:07:40;18.23;;;9.65;;
56401;SDS011;42299;35.160;26.100;2023-03-01T01:09:02;18.95;;;10.38;;
56401;SDS011;42299;35.160;26.100;2023-03-01T01:10:26;17.98;;;9.70;;
56401;SDS011;42299;35.160;26.100;2023-03-01T01:11:48;18.98;;;9.40;;
56401;SDS011;42299;35.160;26.100;2023-03-01T01:13:13;16.33;;;10.85;;
56401;SDS011;42299;35.160;26.100;2023-03-01T01:14:34;26.42;;;10.05;;
56401;SDS011;42299;35.160;26.100;2023-03-01T01:16:01;17.65;;;9.63;;
56401;SDS011;42299;35.160;26.100;2023-03-01T01:17:22;19.90;;;9.80;;
56401;SDS011;42299;35.160;26.100;2023-03-01T01:18:45;14.07;;;9.27;;
56401;SDS011;42299;35.160;26.100;2023-03-01T01:20:07;19.92;;;10.48;;
56401;SDS011;42299;35.160;26.100;2023-03-01T01:21:31;18.58;;;10.38;;
56401;SDS011;42299;35.160;26.100;2023-03-01T01:22:52;17.52;;;10.00;;
56401;SDS011;42299;35.160;26.100;2023-03-01T01:24:15;19.23;;;10.10;;
56401;SDS011;42299;35.160;26.100;2023-03-01T01:25:38;18.73;;;10.77;;
56401;SDS011;42299;35.160;26.100;2023-03-01T01:26:59;18.55;;;9.63;;
56401;SDS011;42299;35.160;26.100;2023-03-01T01:28:21;21.02;;;11.25;;
56401;SDS011;42299;35.160;26.100;2023-03-01T01:29:43;20.20;;;10.70;;
56401;SDS011;42299;35.160;26.100;2023-03-01T01:31:06;17.30;;;10.15;;
56401;SDS011;42299;35.160;26.100;2023-03-01T01:32:29;22.00;;;10.20;;
56401;SDS011;42299;35.160;26.100;2023-03-01T01:33:52;21.10;;;9.85;;
56401;SDS011;42299;35.160;26.100;2023-03-01T01:35:13;19.05;;;9.30;;
56401;SDS011;42299;35.160;26.100;2023-03-01T01:36:36;22.23;;;10.50;;
56401;SDS011;42299;35.160;26.100;2023-03-01T01:37:58;22.98;;;10.48;;
56401;SDS011;42299;35.160;26.100;2023-03-01T01:39:19;16.52;;;10.02;;
56401;SDS011;42299;35.160;26.100;2023-03-01T01:40:45;20.13;;;10.73;;
56401;SDS011;42299;35.160;26.100;2023-03-01T01:42:08;19.70;;;10.00;;
56401;SDS011;42299;35.160;26.100;2023-03-01T01:43:37;15.55;;;9.95;;
56401;SDS011;42299;35.160;26.100;2023-03-01T01:46:50;23.42;;;11.90;;
56401;SDS011;42299;35.160;26.100;2023-03-01T01:48:16;22.33;;;11.40;;
56401;SDS011;42299;35.160;26.100;2023-03-01T01:49:41;19.95;;;10.65;;
56401;SDS011;42299;35.160;26.100;2023-03-01T01:51:07;20.05;;;10.98;;
56401;SDS011;42299;35.160;26.100;2023-03-01T01:52:40;16.25;;;10.15;;
56401;SDS011;42299;35.160;26.100;2023-03-01T01:54:02;25.08;;;11.80;;
56401;SDS011;42299;35.160;26.100;2023-03-01T01:55:27;19.85;;;10.65;;
56401;SDS011;42299;35.160;26.100;2023-03-01T01:56:51;22.15;;;11.50;;
56401;SDS011;42299;35.160;26.100;2023-03-01T01:58:15;17.75;;;10.70;;
56401;SDS011;42299;35.160;26.100;2023-03-01T01:59:41;19.08;;;11.05;;
56401;SDS011;42299;35.160;26.100;2023-03-01T02:01:06;22.95;;;11.52;;
56401;SDS011;42299;35.160;26.100;2023-03-01T02:02:30;23.40;;;11.65;;
56401;SDS011;42299;35.160;26.100;2023-03-01T02:03:54;25.77;;;10.57;;
56401;SDS011;42299;35.160;26.100;2023-03-01T02:05:17;21.77;;;10.93;;
56401;SDS011;42299;35.160;26.100;2023-03-01T02:06:48;19.27;;;10.07;;
56401;SDS011;42299;35.160;26.100;2023-03-01T02:08:16;20.77;;;10.18;;
56401;SDS011;42299;35.160;26.100;2023-03-01T02:09:40;19.55;;;10.88;;
56401;SDS011;42299;35.160;26.100;2023-03-01T02:11:04;15.82;;;10.90;;
56401;SDS011;42299;35.160;26.100;2023-03-01T02:12:26;20.70;;;10.45;;
56401;SDS011;42299;35.160;26.100;2023-03-01T02:13:49;18.95;;;10.30;;
56401;SDS011;42299;35.160;26.100;2023-03-01T02:15:11;21.00;;;11.85;;
56401;SDS011;42299;35.160;26.100;2023-03-01T02:16:33;20.40;;;10.52;;
56401;SDS011;42299;35.160;26.100;2023-03-01T02:17:56;21.17;;;9.70;;
56401;SDS011;42299;35.160;26.100;2023-03-01T02:19:21;18.77;;;10.38;;
56401;SDS011;42299;35.160;26.100;2023-03-01T02:20:54;19.27;;;10.27;;
56401;SDS011;42299;35.160;26.100;2023-03-01T02:22:27;21.27;;;10.35;;
56401;SDS011;42299;35.160;26.100;2023-03-01T02:23:50;21.65;;;10.80;;
56401;SDS011;42299;35.160;26.100;2023-03-01T02:25:22;21.52;;;10.90;;
56401;SDS011;42299;35.160;26.100;2023-03-01T02:26:48;22.13;;;10.75;;
56401;SDS011;42299;35.160;26.100;2023-03-01T02:29:56;23.13;;;10.27;;
56401;SDS011;42299;35.160;26.100;2023-03-01T02:31:19;20.13;;;10.70;;
56401;SDS011;42299;35.160;26.100;2023-03-01T02:32:59;21.65;;;9.65;;
56401;SDS011;42299;35.160;26.100;2023-03-01T02:34:24;17.90;;;10.35;;
56401;SDS011;42299;35.160;26.100;2023-03-01T02:35:48;17.73;;;10.02;;
56401;SDS011;42299;35.160;26.100;2023-03-01T02:37:11;21.58;;;10.40;;
56401;SDS011;42299;35.160;26.100;2023-03-01T02:38:40;18.92;;;11.07;;
56401;SDS011;42299;35.160;26.100;2023-03-01T02:40:03;24.50;;;10.85;;
56401;SDS011;42299;35.160;26.100;2023-03-01T02:41:35;23.70;;;11.13;;
56401;SDS011;42299;35.160;26.100;2023-03-01T02:42:58;21.70;;;11.40;;
56401;SDS011;42299;35.160;26.100;2023-03-01T02:44:22;18.27;;;11.50;;
56401;SDS011;42299;35.160;26.100;2023-03-01T02:45:48;18.10;;;11.05;;
56401;SDS011;42299;35.160;26.100;2023-03-01T02:47:10;21.48;;;11.45;;
56401;SDS011;42299;35.160;26.100;2023-03-01T02:48:42;19.80;;;11.10;;
56401;SDS011;42299;35.160;26.100;2023-03-01T02:50:11;21.45;;;11.90;;
56401;SDS011;42299;35.160;26.100;2023-03-01T02:51:47;22.00;;;12.10;;
56401;SDS011;42299;35.160;26.100;2023-03-01T02:53:15;24.35;;;13.13;;
56401;SDS011;42299;35.160;26.100;2023-03-01T02:54:44;17.30;;;11.80;;
56401;SDS011;42299;35.160;26.100;2023-03-01T02:56:11;23.25;;;12.32;;
56401;SDS011;42299;35.160;26.100;2023-03-01T02:57:35;20.90;;;10.75;;
56401;SDS011;42299;35.160;26.100;2023-03-01T02:59:01;20.30;;;12.20;;
56401;SDS011;42299;35.160;26.100;2023-03-01T03:00:26;19.13;;;12.35;;
56401;SDS011;42299;35.160;26.100;2023-03-01T03:01:53;22.65;;;12.63;;
56401;SDS011;42299;35.160;26.100;2023-03-01T03:03:15;26.00;;;13.73;;
56401;SDS011;42299;35.160;26.100;2023-03-01T03:04:38;25.02;;;12.57;;
56401;SDS011;42299;35.160;26.100;2023-03-01T03:05:59;19.70;;;12.38;;
56401;SDS011;42299;35.160;26.100;2023-03-01T03:07:24;21.75;;;13.15;;
56401;SDS011;42299;35.160;26.100;2023-03-01T03:08:45;21.83;;;11.63;;
56401;SDS011;42299;35.160;26.100;2023-03-01T03:10:08;19.63;;;13.18;;
56401;SDS011;42299;35.160;26.100;2023-03-01T03:11:33;23.85;;;12.30;;
56401;SDS011;42299;35.160;26.100;2023-03-01T03:12:57;20.38;;;11.52;;
56401;SDS011;42299;35.160;26.100;2023-03-01T03:14:20;21.17;;;11.68;;
56401;SDS011;42299;35.160;26.100;2023-03-01T03:15:44;22.52;;;13.13;;
56401;SDS011;42299;35.160;26.100;2023-03-01T03:17:07;19.08;;;10.27;;
56401;SDS011;42299;35.160;26.100;2023-03-01T03:18:28;18.13;;;9.93;;
56401;SDS011;42299;35.160;26.100;2023-03-01T03:19:50;18.60;;;10.50;;
56401;SDS011;42299;35.160;26.100;2023-03-01T03:21:12;19.85;;;10.50;;
56401;SDS011;42299;35.160;26.100;2023-03-01T03:22:34;15.30;;;10.15;;
56401;SDS011;42299;35.160;26.100;2023-03-01T03:23:56;20.58;;;10.52;;
56401;SDS011;42299;35.160;26.100;2023-03-01T03:25:19;26.25;;;12.50;;
56401;SDS011;42299;35.160;26.100;2023-03-01T03:26:41;19.02;;;11.20;;
56401;SDS011;42299;35.160;26.100;2023-03-01T03:28:03;20.08;;;10.60;;
56401;SDS011;42299;35.160;26.100;2023-03-01T03:29:29;18.77;;;10.48;;
56401;SDS011;42299;35.160;26.100;2023-03-01T03:30:52;15.77;;;9.45;;
56401;SDS011;42299;35.160;26.100;2023-03-01T03:32:14;18.73;;;10.13;;
56401;SDS011;42299;35.160;26.100;2023-03-01T03:33:37;17.67;;;9.60;;
56401;SDS011;42299;35.160;26.100;2023-03-01T03:34:59;22.30;;;10.43;;
56401;SDS011;42299;35.160;26.100;2023-03-01T03:36:22;16.58;;;8.55;;
56401;SDS011;42299;35.160;26.100;2023-03-01T03:37:47;20.13;;;9.50;;
56401;SDS011;42299;35.160;26.100;2023-03-01T03:39:23;19.60;;;10.48;;
56401;SDS011;42299;35.160;26.100;2023-03-01T03:40:46;18.40;;;9.50;;
56401;SDS011;42299;35.160;26.100;2023-03-01T03:42:09;20.55;;;10.45;;
56401;SDS011;42299;35.160;26.100;2023-03-01T03:43:32;19.27;;;9.60;;
56401;SDS011;42299;35.160;26.100;2023-03-01T03:44:54;16.00;;;8.88;;
56401;SDS011;42299;35.160;26.100;2023-03-01T03:46:17;16.02;;;9.38;;
56401;SDS011;42299;35.160;26.100;2023-03-01T03:47:40;20.38;;;9.93;;
56401;SDS011;42299;35.160;26.100;2023-03-01T03:49:01;19.15;;;9.32;;
56401;SDS011;42299;35.160;26.100;2023-03-01T03:50:24;20.00;;;9.73;;
56401;SDS011;42299;35.160;26.100;2023-03-01T03:51:46;15.73;;;9.52;;
56401;SDS011;42299;35.160;26.100;2023-03-01T03:53:10;17.70;;;9.05;;
56401;SDS011;42299;35.160;26.100;2023-03-01T03:54:35;20.88;;;9.82;;
56401;SDS011;42299;35.160;26.100;2023-03-01T03:55:57;18.00;;;9.68;;
56401;SDS011;42299;35.160;26.100;2023-03-01T03:57:18;17.27;;;9.40;;
56401;SDS011;42299;35.160;26.100;2023-03-01T03:58:41;21.88;;;10.85;;
56401;SDS011;42299;35.160;26.100;2023-03-01T04:00:02;17.05;;;9.18;;
56401;SDS011;42299;35.160;26.100;2023-03-01T04:01:34;18.13;;;9.88;;
56401;SDS011;42299;35.160;26.100;2023-03-01T04:02:56;18.40;;;9.85;;
56401;SDS011;42299;35.160;26.100;2023-03-01T04:04:17;19.67;;;9.48;;
56401;SDS011;42299;35.160;26.100;2023-03-01T04:05:40;15.98;;;9.10;;
56401;SDS011;42299;35.160;26.100;2023-03-01T04:07:01;19.73;;;10.07;;
56401;SDS011;42299;35.160;26.100;2023-03-01T04:08:24;18.98;;;10.05;;
56401;SDS011;42299;35.160;26.100;2023-03-01T04:09:45;24.15;;;12.57;;
56401;SDS011;42299;35.160;26.100;2023-03-01T04:11:08;20.30;;;11.50;;
56401;SDS011;42299;35.160;26.100;2023-03-01T04:12:48;24.05;;;13.48;;
56401;SDS011;42299;35.160;26.100;2023-03-01T04:14:10;22.90;;;11.35;;
56401;SDS011;42299;35.160;26.100;2023-03-01T04:15:32;28.35;;;11.88;;
56401;SDS011;42299;35.160;26.100;2023-03-01T04:16:56;25.65;;;12.43;;
56401;SDS011;42299;35.160;26.100;2023-03-01T04:18:18;22.48;;;11.30;;
56401;SDS011;42299;35.160;26.100;2023-03-01T04:19:41;21.70;;;11.57;;
56401;SDS011;42299;35.160;26.100;2023-03-01T04:21:04;18.50;;;11.68;;
56401;SDS011;42299;35.160;26.100;2023-03-01T04:22:25;15.40;;;10.15;;
56401;SDS011;42299;35.160;26.100;2023-03-01T04:23:50;23.70;;;12.63;;
56401;SDS011;42299;35.160;26.100;2023-03-01T04:25:13;22.02;;;11.90;;
56401;SDS011;42299;35.160;26.100;2023-03-01T04:27:56;23.63;;;10.70;;
56401;SDS011;42299;35.160;26.100;2023-03-01T04:29:18;16.73;;;9.35;;
56401;SDS011;42299;35.160;26.100;2023-03-01T04:30:43;16.90;;;9.52;;
56401;SDS011;42299;35.160;26.100;2023-03-01T04:32:07;18.33;;;9.68;;
56401;SDS011;42299;35.160;26.100;2023-03-01T04:33:29;18.27;;;10.65;;
56401;SDS011;42299;35.160;26.100;2023-03-01T04:34:50;14.55;;;10.07;;
56401;SDS011;42299;35.160;26.100;2023-03-01T04:36:13;17.52;;;9.30;;
56401;SDS011;42299;35.160;26.100;2023-03-01T04:37:36;17.13;;;10.30;;
56401;SDS011;42299;35.160;26.100;2023-03-01T04:38:58;19.27;;;10.25;;
56401;SDS011;42299;35.160;26.100;2023-03-01T04:40:32;22.10;;;9.40;;
56401;SDS011;42299;35.160;26.100;2023-03-01T04:41:55;16.77;;;9.90;;
56401;SDS011;42299;35.160;26.100;2023-03-01T04:43:17;18.00;;;9.45;;
56401;SDS011;42299;35.160;26.100;2023-03-01T04:44:39;15.73;;;9.45;;
56401;SDS011;42299;35.160;26.100;2023-03-01T04:46:01;16.20;;;10.10;;
56401;SDS011;42299;35.160;26.100;2023-03-01T04:47:25;18.50;;;9.63;;
56401;SDS011;42299;35.160;26.100;2023-03-01T04:48:48;20.50;;;9.75;;
56401;SDS011;42299;35.160;26.100;2023-03-01T04:50:11;17.25;;;9.57;;
56401;SDS011;42299;35.160;26.100;2023-03-01T04:51:34;20.08;;;10.02;;
56401;SDS011;42299;35.160;26.100;2023-03-01T04:52:56;22.65;;;8.73;;
56401;SDS011;42299;35.160;26.100;2023-03-01T04:54:18;18.50;;;10.20;;
56401;SDS011;42299;35.160;26.100;2023-03-01T04:55:41;16.73;;;9.55;;
56401;SDS011;42299;35.160;26.100;2023-03-01T04:57:02;15.98;;;9.55;;
56401;SDS011;42299;35.160;26.100;2023-03-01T04:58:26;21.42;;;10.80;;
56401;SDS011;42299;35.160;26.100;2023-03-01T04:59:48;16.38;;;10.20;;
56401;SDS011;42299;35.160;26.100;2023-03-01T05:01:10;20.42;;;9.95;;
56401;SDS011;42299;35.160;26.100;2023-03-01T05:02:37;21.42;;;10.70;;
56401;SDS011;42299;35.160;26.100;2023-03-01T05:03:59;20.35;;;10.63;;
56401;SDS011;42299;35.160;26.100;2023-03-01T05:05:26;23.58;;;10.70;;
56401;SDS011;42299;35.160;26.100;2023-03-01T05:06:48;16.73;;;10.38;;
56401;SDS011;42299;35.160;26.100;2023-03-01T05:08:12;21.42;;;10.30;;
56401;SDS011;42299;35.160;26.100;2023-03-01T05:09:37;19.58;;;10.63;;
56401;SDS011;42299;35.160;26.100;2023-03-01T05:11:00;19.90;;;9.90;;
56401;SDS011;42299;35.160;26.100;2023-03-01T05:12:22;18.05;;;10.20;;
56401;SDS011;42299;35.160;26.100;2023-03-01T05:13:43;20.35;;;10.20;;
56401;SDS011;42299;35.160;26.100;2023-03-01T05:15:06;15.95;;;10.27;;
56401;SDS011;42299;35.160;26.100;2023-03-01T05:16:28;23.15;;;10.30;;
56401;SDS011;42299;35.160;26.100;2023-03-01T05:17:52;19.98;;;10.25;;
56401;SDS011;42299;35.160;26.100;2023-03-01T05:19:14;18.10;;;11.18;;
56401;SDS011;42299;35.160;26.100;2023-03-01T05:20:37;21.52;;;11.88;;
56401;SDS011;42299;35.160;26.100;2023-03-01T05:21:58;20.75;;;10.70;;
56401;SDS011;42299;35.160;26.100;2023-03-01T05:23:25;15.65;;;10.27;;
56401;SDS011;42299;35.160;26.100;2023-03-01T05:24:47;24.05;;;10.70;;
56401;SDS011;42299;35.160;26.100;2023-03-01T05:26:09;18.05;;;9.88;;
56401;SDS011;42299;35.160;26.100;2023-03-01T05:27:33;24.02;;;11.38;;
56401;SDS011;42299;35.160;26.100;2023-03-01T05:28:55;17.48;;;10.80;;
56401;SDS011;42299;35.160;26.100;2023-03-01T05:30:19;21.05;;;9.93;;
56401;SDS011;42299;35.160;26.100;2023-03-01T05:31:41;21.58;;;10.90;;
56401;SDS011;42299;35.160;26.100;2023-03-01T05:33:05;20.58;;;10.65;;
56401;SDS011;42299;35.160;26.100;2023-03-01T05:34:34;22.48;;;10.52;;
56401;SDS011;42299;35.160;26.100;2023-03-01T05:35:59;23.50;;;10.52;;
56401;SDS011;42299;35.160;26.100;2023-03-01T05:37:20;20.30;;;10.05;;
56401;SDS011;42299;35.160;26.100;2023-03-01T05:38:43;17.73;;;10.43;;
56401;SDS011;42299;35.160;26.100;2023-03-01T05:40:05;19.60;;;10.27;;
56401;SDS011;42299;35.160;26.100;2023-03-01T05:41:35;21.55;;;11.25;;
56401;SDS011;42299;35.160;26.100;2023-03-01T05:42:58;23.00;;;11.05;;
56401;SDS011;42299;35.160;26.100;2023-03-01T05:44:20;22.90;;;11.45;;
56401;SDS011;42299;35.160;26.100;2023-03-01T05:45:41;20.40;;;10.82;;
56401;SDS011;42299;35.160;26.100;2023-03-01T05:47:04;17.70;;;10.02;;
56401;SDS011;42299;35.160;26.100;2023-03-01T05:48:27;18.65;;;10.00;;
56401;SDS011;42299;35.160;26.100;2023-03-01T05:49:49;20.02;;;9.77;;
56401;SDS011;42299;35.160;26.100;2023-03-01T05:51:11;19.23;;;10.57;;
56401;SDS011;42299;35.160;26.100;2023-03-01T05:52:34;17.08;;;10.52;;
56401;SDS011;42299;35.160;26.100;2023-03-01T05:53:55;19.08;;;11.27;;
56401;SDS011;42299;35.160;26.100;2023-03-01T05:55:17;26.25;;;12.10;;
56401;SDS011;42299;35.160;26.100;2023-03-01T05:56:40;22.77;;;11.32;;
56401;SDS011;42299;35.160;26.100;2023-03-01T05:58:03;26.35;;;11.82;;
56401;SDS011;42299;35.160;26.100;2023-03-01T05:59:26;18.95;;;11.00;;
56401;SDS011;42299;35.160;26.100;2023-03-01T06:00:49;22.98;;;11.10;;
56401;SDS011;42299;35.160;26.100;2023-03-01T06:02:11;21.20;;;11.73;;
56401;SDS011;42299;35.160;26.100;2023-03-01T06:03:34;20.08;;;11.05;;
56401;SDS011;42299;35.160;26.100;2023-03-01T06:04:56;18.23;;;10.60;;
56401;SDS011;42299;35.160;26.100;2023-03-01T06:06:17;21.05;;;9.73;;
56401;SDS011;42299;35.160;26.100;2023-03-01T06:07:40;24.42;;;11.50;;
56401;SDS011;42299;35.160;26.100;2023-03-01T06:09:03;22.80;;;11.50;;
56401;SDS011;42299;35.160;26.100;2023-03-01T06:10:27;21.05;;;10.98;;
56401;SDS011;42299;35.160;26.100;2023-03-01T06:11:50;20.27;;;11.45;;
56401;SDS011;42299;35.160;26.100;2023-03-01T06:13:12;22.90;;;13.68;;
56401;SDS011;42299;35.160;26.100;2023-03-01T06:14:34;21.60;;;13.77;;
56401;SDS011;42299;35.160;26.100;2023-03-01T06:15:56;21.98;;;11.75;;
56401;SDS011;42299;35.160;26.100;2023-03-01T06:17:18;25.25;;;12.48;;
56401;SDS011;42299;35.160;26.100;2023-03-01T06:18:41;26.80;;;12.00;;
56401;SDS011;42299;35.160;26.100;2023-03-01T06:20:03;19.20;;;11.50;;
56401;SDS011;42299;35.160;26.100;2023-03-01T06:21:25;21.00;;;12.65;;
56401;SDS011;42299;35.160;26.100;2023-03-01T06:22:48;24.75;;;13.68;;
56401;SDS011;42299;35.160;26.100;2023-03-01T06:24:10;27.20;;;15.63;;
56401;SDS011;42299;35.160;26.100;2023-03-01T06:25:32;28.23;;;14.50;;
56401;SDS011;42299;35.160;26.100;2023-03-01T06:26:53;20.77;;;13.10;;
56401;SDS011;42299;35.160;26.100;2023-03-01T06:28:16;21.63;;;13.23;;
56401;SDS011;42299;35.160;26.100;2023-03-01T06:29:38;33.25;;;21.80;;
56401;SDS011;42299;35.160;26.100;2023-03-01T06:31:01;40.60;;;27.27;;
56401;SDS011;42299;35.160;26.100;2023-03-01T06:32:23;48.92;;;32.30;;
56401;SDS011;42299;35.160;26.100;2023-03-01T06:33:47;50.03;;;31.58;;
56401;SDS011;42299;35.160;26.100;2023-03-01T06:35:10;41.58;;;26.33;;
56401;SDS011;42299;35.160;26.100;2023-03-01T06:36:34;47.22;;;29.45;;
56401;SDS011;42299;35.160;26.100;2023-03-01T06:37:56;46.55;;;31.52;;
56401;SDS011;42299;35.160;26.100;2023-03-01T06:39:20;40.85;;;28.38;;
56401;SDS011;42299;35.160;26.100;2023-03-01T06:40:41;44.38;;;27.55;;
56401;SDS011;42299;35.160;26.100;2023-03-01T06:42:03;37.20;;;26.20;;
56401;SDS011;42299;35.160;26.100;2023-03-01T06:43:25;37.65;;;21.92;;
56401;SDS011;42299;35.160;26.100;2023-03-01T06:44:48;34.03;;;22.77;;
56401;SDS011;42299;35.160;26.100;2023-03-01T06:46:10;28.77;;;17.27;;
56401;SDS011;42299;35.160;26.100;2023-03-01T06:47:32;25.42;;;15.23;;
56401;SDS011;42299;35.160;26.100;2023-03-01T06:48:55;28.98;;;14.75;;
56401;SDS011;42299;35.160;26.100;2023-03-01T06:50:18;25.50;;;13.82;;
56401;SDS011;42299;35.160;26.100;2023-03-01T06:51:40;19.20;;;11.93;;
56401;SDS011;42299;35.160;26.100;2023-03-01T06:53:03;25.95;;;12.93;;
56401;SDS011;42299;35.160;26.100;2023-03-01T06:54:26;22.20;;;13.48;;
56401;SDS011;42299;35.160;26.100;2023-03-01T06:55:53;25.65;;;13.48;;
56401;SDS011;42299;35.160;26.100;2023-03-01T06:57:16;24.15;;;13.77;;
56401;SDS011;42299;35.160;26.100;2023-03-01T06:58:37;28.90;;;13.27;;
56401;SDS011;42299;35.160;26.100;2023-03-01T06:59:59;23.50;;;12.65;;
56401;SDS011;42299;35.160;26.100;2023-03-01T07:01:21;31.00;;;13.32;;
56401;SDS011;42299;35.160;26.100;2023-03-01T07:02:43;26.73;;;11.85;;
56401;SDS011;42299;35.160;26.100;2023-03-01T07:04:07;20.70;;;11.65;;
56401;SDS011;42299;35.160;26.100;2023-03-01T07:05:29;19.70;;;11.90;;
56401;SDS011;42299;35.160;26.100;2023-03-01T07:06:52;20.80;;;11.18;;
56401;SDS011;42299;35.160;26.100;2023-03-01T07:08:15;19.60;;;10.60;;
56401;SDS011;42299;35.160;26.100;2023-03-01T07:09:37;23.80;;;13.15;;
56401;SDS011;42299;35.160;26.100;2023-03-01T07:10:58;20.42;;;12.50;;
56401;SDS011;42299;35.160;26.100;2023-03-01T07:12:22;18.58;;;8.65;;
56401;SDS011;42299;35.160;26.100;2023-03-01T07:13:44;16.63;;;9.35;;
56401;SDS011;42299;35.160;26.100;2023-03-01T07:15:08;21.98;;;10.73;;
56401;SDS011;42299;35.160;26.100;2023-03-01T07:16:31;39.25;;;19.23;;
56401;SDS011;42299;35.160;26.100;2023-03-01T07:17:54;45.25;;;23.38;;
56401;SDS011;42299;35.160;26.100;2023-03-01T07:19:18;39.63;;;23.17;;
56401;SDS011;42299;35.160;26.100;2023-03-01T07:20:41;44.63;;;21.70;;
56401;SDS011;42299;35.160;26.100;2023-03-01T07:22:04;34.78;;;19.60;;
56401;SDS011;42299;35.160;26.100;2023-03-01T07:23:28;34.75;;;18.10;;
56401;SDS011;42299;35.160;26.100;2023-03-01T07:24:50;26.40;;;14.13;;
56401;SDS011;42299;35.160;26.100;2023-03-01T07:26:13;23.65;;;14.05;;
56401;SDS011;42299;35.160;26.100;2023-03-01T07:27:35;24.58;;;11.90;;
56401;SDS011;42299;35.160;26.100;2023-03-01T07:28:58;19.80;;;11.20;;
56401;SDS011;42299;35.160;26.100;2023-03-01T07:30:21;21.50;;;9.13;;
56401;SDS011;42299;35.160;26.100;2023-03-01T07:31:46;17.38;;;8.63;;
56401;SDS011;42299;35.160;26.100;2023-03-01T07:33:08;20.38;;;9.85;;
56401;SDS011;42299;35.160;26.100;2023-03-01T07:34:32;22.83;;;10.95;;
56401;SDS011;42299;35.160;26.100;2023-03-01T07:35:57;22.27;;;8.35;;
56401;SDS011;42299;35.160;26.100;2023-03-01T07:37:20;17.35;;;7.85;;
56401;SDS011;42299;35.160;26.100;2023-03-01T07:38:42;15.90;;;7.30;;
56401;SDS011;42299;35.160;26.100;2023-03-01T07:40:05;16.48;;;7.07;;
56401;SDS011;42299;35.160;26.100;2023-03-01T07:41:28;18.50;;;7.47;;
56401;SDS011;42299;35.160;26.100;2023-03-01T07:42:54;22.60;;;7.85;;
56401;SDS011;42299;35.160;26.100;2023-03-01T07:44:18;18.23;;;7.60;;
56401;SDS011;42299;35.160;26.100;2023-03-01T07:45:40;19.52;;;7.97;;
56401;SDS011;42299;35.160;26.100;2023-03-01T07:47:02;16.77;;;7.25;;
56401;SDS011;42299;35.160;26.100;2023-03-01T07:48:25;15.35;;;6.70;;
56401;SDS011;42299;35.160;26.100;2023-03-01T07:49:49;15.88;;;8.73;;
56401;SDS011;42299;35.160;26.100;2023-03-01T07:51:12;18.02;;;9.52;;
56401;SDS011;42299;35.160;26.100;2023-03-01T07:52:34;21.80;;;8.43;;
56401;SDS011;42299;35.160;26.100;2023-03-01T07:53:56;21.40;;;8.70;;
56401;SDS011;42299;35.160;26.100;2023-03-01T07:55:18;17.65;;;8.13;;
56401;SDS011;42299;35.160;26.100;2023-03-01T07:56:41;18.17;;;7.25;;
56401;SDS011;42299;35.160;26.100;2023-03-01T07:58:03;14.25;;;6.57;;
56401;SDS011;42299;35.160;26.100;2023-03-01T07:59:25;19.25;;;7.45;;
56401;SDS011;42299;35.160;26.100;2023-03-01T08:00:49;15.88;;;7.00;;
56401;SDS011;42299;35.160;26.100;2023-03-01T08:02:11;19.80;;;7.90;;
56401;SDS011;42299;35.160;26.100;2023-03-01T08:03:35;17.17;;;7.30;;
56401;SDS011;42299;35.160;26.100;2023-03-01T08:04:59;16.67;;;6.43;;
56401;SDS011;42299;35.160;26.100;2023-03-01T08:06:21;18.60;;;6.68;;